sensor_id;sensor_type;location;lat;lon;timestamp;pressure;altitude;pressure_sealevel;temperature;humidity
18201;BME280;9226;47.858;9.594;2024-02-21T00:00:51;96205.53;;;6.08;69.01
18201;BME280;9226;47.858;9.594;2024-02-21T00:03:17;96207.25;;;6.09;68.99
18201;BME280;9226;47.858;9.594;2024-02-21T00:05:42;96215.81;;;6.12;68.35
18201;BME280;9226;47.858;9.594;2024-02-21T00:08:08;96212.31;;;6.12;68.72
18201;BME280;9226;47.858;9.594;2024-02-21T00:10:33;96207.25;;;6.09;69.31
18201;BME280;9226;47.858;9.594;2024-02-21T00:13:00;96206.22;;;6.11;69.06
18201;BME280;9226;47.858;9.594;2024-02-21T00:15:26;96204.75;;;6.06;69.20
18201;BME280;9226;47.858;9.594;2024-02-21T00:17:51;96200.09;;;6.11;68.88
18201;BME280;9226;47.858;9.594;2024-02-21T00:20:17;96199.25;;;6.10;68.98
18201;BME280;9226;47.858;9.594;2024-02-21T00:22:43;96201.97;;;6.09;69.13
18201;BME280;9226;47.858;9.594;2024-02-21T00:25:09;96197.16;;;6.00;69.79
18201;BME280;9226;47.858;9.594;2024-02-21T00:27:35;96197.84;;;6.03;69.58
18201;BME280;9226;47.858;9.594;2024-02-21T00:30:00;96196.06;;;6.04;69.45
18201;BME280;9226;47.858;9.594;2024-02-21T00:32:25;96198.94;;;5.99;70.21
18201;BME280;9226;47.858;9.594;2024-02-21T00:34:51;96194.44;;;6.01;69.46
18201;BME280;9226;47.858;9.594;2024-02-21T00:37:16;96190.19;;;5.98;69.75
18201;BME280;9226;47.858;9.594;2024-02-21T00:39:41;96199.03;;;5.96;70.13
18201;BME280;9226;47.858;9.594;2024-02-21T00:42:07;96195.44;;;5.98;69.89
18201;BME280;9226;47.858;9.594;2024-02-21T00:44:33;96198.16;;;5.97;70.20
18201;BME280;9226;47.858;9.594;2024-02-21T00:46:58;96188.38;;;5.99;69.50
18201;BME280;9226;47.858;9.594;2024-02-21T00:49:24;96182.72;;;6.07;68.89
18201;BME280;9226;47.858;9.594;2024-02-21T00:51:49;96182.19;;;6.00;69.33
18201;BME280;9226;47.858;9.594;2024-02-21T00:54:15;96185.03;;;5.95;69.97
18201;BME280;9226;47.858;9.594;2024-02-21T00:56:42;96182.34;;;5.97;69.56
18201;BME280;9226;47.858;9.594;2024-02-21T00:59:07;96187.63;;;5.97;69.42
18201;BME280;9226;47.858;9.594;2024-02-21T01:01:33;96185.19;;;5.92;69.75
18201;BME280;9226;47.858;9.594;2024-02-21T01:03:58;96181.94;;;5.87;70.52
18201;BME280;9226;47.858;9.594;2024-02-21T01:06:23;96181.25;;;5.84;70.67
18201;BME280;9226;47.858;9.594;2024-02-21T01:08:49;96172.41;;;5.85;70.27
18201;BME280;9226;47.858;9.594;2024-02-21T01:11:15;96166.38;;;5.83;70.71
18201;BME280;9226;47.858;9.594;2024-02-21T01:13:41;96170.66;;;5.85;69.87
18201;BME280;9226;47.858;9.594;2024-02-21T01:16:06;96166.75;;;5.75;70.51
18201;BME280;9226;47.858;9.594;2024-02-21T01:18:34;96160.72;;;5.73;70.70
18201;BME280;9226;47.858;9.594;2024-02-21T01:21:00;96159.16;;;5.69;71.13
18201;BME280;9226;47.858;9.594;2024-02-21T01:23:25;96155.31;;;5.76;70.25
18201;BME280;9226;47.858;9.594;2024-02-21T01:25:51;96150.03;;;5.76;70.30
18201;BME280;9226;47.858;9.594;2024-02-21T01:28:17;96144.78;;;5.76;69.94
18201;BME280;9226;47.858;9.594;2024-02-21T01:30:42;96144.84;;;5.74;70.03
18201;BME280;9226;47.858;9.594;2024-02-21T01:33:07;96142.44;;;5.70;70.09
18201;BME280;9226;47.858;9.594;2024-02-21T01:35:34;96137.03;;;5.73;70.39
18201;BME280;9226;47.858;9.594;2024-02-21T01:37:59;96138.19;;;5.67;71.20
18201;BME280;9226;47.858;9.594;2024-02-21T01:40:25;96142.06;;;5.60;71.93
18201;BME280;9226;47.858;9.594;2024-02-21T01:42:50;96139.44;;;5.60;71.74
18201;BME280;9226;47.858;9.594;2024-02-21T01:45:19;96135.31;;;5.72;70.95
18201;BME280;9226;47.858;9.594;2024-02-21T01:47:44;96131.03;;;5.69;71.21
18201;BME280;9226;47.858;9.594;2024-02-21T01:50:11;96130.88;;;5.72;71.09
18201;BME280;9226;47.858;9.594;2024-02-21T01:52:37;96136.41;;;5.68;71.37
18201;BME280;9226;47.858;9.594;2024-02-21T01:55:05;96137.03;;;5.73;71.04
18201;BME280;9226;47.858;9.594;2024-02-21T01:57:31;96143.75;;;5.78;70.73
18201;BME280;9226;47.858;9.594;2024-02-21T01:59:57;96142.97;;;5.76;70.94
18201;BME280;9226;47.858;9.594;2024-02-21T02:02:22;96136.72;;;5.79;70.94
18201;BME280;9226;47.858;9.594;2024-02-21T02:04:48;96128.19;;;5.74;71.43
18201;BME280;9226;47.858;9.594;2024-02-21T02:07:14;96120.19;;;5.75;71.13
18201;BME280;9226;47.858;9.594;2024-02-21T02:09:39;96121.38;;;5.70;71.10
18201;BME280;9226;47.858;9.594;2024-02-21T02:12:05;96122.53;;;5.82;70.22
18201;BME280;9226;47.858;9.594;2024-02-21T02:14:30;96113.03;;;5.79;70.71
18201;BME280;9226;47.858;9.594;2024-02-21T02:16:56;96103.88;;;5.69;71.17
18201;BME280;9226;47.858;9.594;2024-02-21T02:19:21;96097.63;;;5.71;70.78
18201;BME280;9226;47.858;9.594;2024-02-21T02:21:51;96093.19;;;5.72;70.80
18201;BME280;9226;47.858;9.594;2024-02-21T02:24:22;96082.97;;;5.66;71.13
18201;BME280;9226;47.858;9.594;2024-02-21T02:26:49;96080.03;;;5.72;70.75
18201;BME280;9226;47.858;9.594;2024-02-21T02:29:14;96072.28;;;5.69;70.71
18201;BME280;9226;47.858;9.594;2024-02-21T02:31:40;96063.94;;;5.60;71.40
18201;BME280;9226;47.858;9.594;2024-02-21T02:34:05;96072.91;;;5.56;71.18
18201;BME280;9226;47.858;9.594;2024-02-21T02:36:33;96072.69;;;5.43;72.03
18201;BME280;9226;47.858;9.594;2024-02-21T02:38:59;96067.94;;;5.50;71.96
18201;BME280;9226;47.858;9.594;2024-02-21T02:41:24;96067.28;;;5.47;72.16
18201;BME280;9226;47.858;9.594;2024-02-21T02:43:50;96069.13;;;5.44;72.11
18201;BME280;9226;47.858;9.594;2024-02-21T02:46:15;96059.59;;;5.42;72.49
18201;BME280;9226;47.858;9.594;2024-02-21T02:48:41;96061.78;;;5.51;71.47
18201;BME280;9226;47.858;9.594;2024-02-21T02:51:06;96065.41;;;5.49;72.39
18201;BME280;9226;47.858;9.594;2024-02-21T02:53:31;96064.16;;;5.56;71.30
18201;BME280;9226;47.858;9.594;2024-02-21T02:55:57;96060.47;;;5.60;71.19
18201;BME280;9226;47.858;9.594;2024-02-21T02:58:22;96059.81;;;5.55;71.76
18201;BME280;9226;47.858;9.594;2024-02-21T03:00:48;96061.06;;;5.65;70.76
18201;BME280;9226;47.858;9.594;2024-02-21T03:03:13;96064.53;;;5.66;71.02
18201;BME280;9226;47.858;9.594;2024-02-21T03:05:38;96051.31;;;5.67;70.94
18201;BME280;9226;47.858;9.594;2024-02-21T03:08:04;96044.44;;;5.65;70.96
18201;BME280;9226;47.858;9.594;2024-02-21T03:10:32;96046.13;;;5.66;70.87
18201;BME280;9226;47.858;9.594;2024-02-21T03:12:58;96047.38;;;5.58;71.59
18201;BME280;9226;47.858;9.594;2024-02-21T03:15:24;96043.72;;;5.61;70.88
18201;BME280;9226;47.858;9.594;2024-02-21T03:17:49;96038.69;;;5.56;71.16
18201;BME280;9226;47.858;9.594;2024-02-21T03:20:15;96037.63;;;5.60;70.91
18201;BME280;9226;47.858;9.594;2024-02-21T03:22:40;96040.84;;;5.66;70.27
18201;BME280;9226;47.858;9.594;2024-02-21T03:25:06;96039.47;;;5.58;71.14
18201;BME280;9226;47.858;9.594;2024-02-21T03:27:32;96030.78;;;5.56;71.01
18201;BME280;9226;47.858;9.594;2024-02-21T03:29:57;96032.03;;;5.67;70.39
18201;BME280;9226;47.858;9.594;2024-02-21T03:32:23;96032.03;;;5.67;70.38
18201;BME280;9226;47.858;9.594;2024-02-21T03:34:48;96028.63;;;5.65;70.57
18201;BME280;9226;47.858;9.594;2024-02-21T03:37:13;96028.78;;;5.61;70.75
18201;BME280;9226;47.858;9.594;2024-02-21T03:39:39;96022.91;;;5.56;70.76
18201;BME280;9226;47.858;9.594;2024-02-21T03:42:05;96015.16;;;5.53;70.80
18201;BME280;9226;47.858;9.594;2024-02-21T03:44:31;96009.13;;;5.51;70.66
18201;BME280;9226;47.858;9.594;2024-02-21T03:46:58;96008.38;;;5.49;70.84
18201;BME280;9226;47.858;9.594;2024-02-21T03:49:23;96004.56;;;5.37;71.50
18201;BME280;9226;47.858;9.594;2024-02-21T03:51:49;95998.00;;;5.46;70.84
18201;BME280;9226;47.858;9.594;2024-02-21T03:54:14;96004.88;;;5.49;70.73
18201;BME280;9226;47.858;9.594;2024-02-21T03:56:40;96006.34;;;5.54;70.74
18201;BME280;9226;47.858;9.594;2024-02-21T03:59:08;96009.13;;;5.51;71.22
18201;BME280;9226;47.858;9.594;2024-02-21T04:01:34;96013.16;;;5.58;70.71
18201;BME280;9226;47.858;9.594;2024-02-21T04:04:00;95997.97;;;5.64;70.56
18201;BME280;9226;47.858;9.594;2024-02-21T04:06:25;96003.38;;;5.60;70.86
18201;BME280;9226;47.858;9.594;2024-02-21T04:08:50;95989.72;;;5.54;70.77
18201;BME280;9226;47.858;9.594;2024-02-21T04:11:16;95993.94;;;5.56;70.25
18201;BME280;9226;47.858;9.594;2024-02-21T04:13:42;95997.88;;;5.65;70.08
18201;BME280;9226;47.858;9.594;2024-02-21T04:16:08;95984.97;;;5.60;70.13
18201;BME280;9226;47.858;9.594;2024-02-21T04:18:33;95971.03;;;5.58;70.07
18201;BME280;9226;47.858;9.594;2024-02-21T04:20:58;95972.03;;;5.56;70.23
18201;BME280;9226;47.858;9.594;2024-02-21T04:23:24;95965.06;;;5.55;70.22
18201;BME280;9226;47.858;9.594;2024-02-21T04:25:49;95954.25;;;5.43;70.51
18201;BME280;9226;47.858;9.594;2024-02-21T04:28:14;95957.13;;;5.39;70.59
18201;BME280;9226;47.858;9.594;2024-02-21T04:30:40;95950.63;;;5.46;70.34
18201;BME280;9226;47.858;9.594;2024-02-21T04:33:05;95948.41;;;5.38;71.09
18201;BME280;9226;47.858;9.594;2024-02-21T04:35:31;95942.53;;;5.33;71.18
18201;BME280;9226;47.858;9.594;2024-02-21T04:37:56;95947.56;;;5.38;70.97
18201;BME280;9226;47.858;9.594;2024-02-21T04:40:21;95945.53;;;5.43;70.63
18201;BME280;9226;47.858;9.594;2024-02-21T04:42:47;95936.00;;;5.40;71.04
18201;BME280;9226;47.858;9.594;2024-02-21T04:45:13;95938.56;;;5.42;70.67
18201;BME280;9226;47.858;9.594;2024-02-21T04:47:38;95934.16;;;5.42;70.89
18201;BME280;9226;47.858;9.594;2024-02-21T04:50:03;95931.09;;;5.50;70.24
18201;BME280;9226;47.858;9.594;2024-02-21T04:52:29;95924.81;;;5.53;70.26
18201;BME280;9226;47.858;9.594;2024-02-21T04:54:54;95923.81;;;5.55;70.12
18201;BME280;9226;47.858;9.594;2024-02-21T04:57:20;95923.66;;;5.58;70.07
18201;BME280;9226;47.858;9.594;2024-02-21T04:59:46;95916.19;;;5.51;71.01
18201;BME280;9226;47.858;9.594;2024-02-21T05:02:14;95914.81;;;5.59;70.11
18201;BME280;9226;47.858;9.594;2024-02-21T05:04:40;95908.03;;;5.55;70.42
18201;BME280;9226;47.858;9.594;2024-02-21T05:07:07;95911.91;;;5.48;70.00
18201;BME280;9226;47.858;9.594;2024-02-21T05:09:32;95908.69;;;5.43;70.04
18201;BME280;9226;47.858;9.594;2024-02-21T05:11:57;95911.03;;;5.32;70.13
18201;BME280;9226;47.858;9.594;2024-02-21T05:14:26;95902.50;;;5.44;69.53
18201;BME280;9226;47.858;9.594;2024-02-21T05:16:52;95896.25;;;5.29;70.20
18201;BME280;9226;47.858;9.594;2024-02-21T05:19:17;95896.53;;;5.07;70.80
18201;BME280;9226;47.858;9.594;2024-02-21T05:21:43;95881.03;;;5.18;70.29
18201;BME280;9226;47.858;9.594;2024-02-21T05:24:08;95879.19;;;5.20;70.25
18201;BME280;9226;47.858;9.594;2024-02-21T05:26:33;95890.78;;;5.16;70.24
18201;BME280;9226;47.858;9.594;2024-02-21T05:28:58;95897.94;;;5.14;70.20
18201;BME280;9226;47.858;9.594;2024-02-21T05:31:25;95899.09;;;5.08;70.70
18201;BME280;9226;47.858;9.594;2024-02-21T05:33:50;95897.72;;;5.01;71.17
18201;BME280;9226;47.858;9.594;2024-02-21T05:36:16;95900.28;;;5.03;71.00
18201;BME280;9226;47.858;9.594;2024-02-21T05:38:41;95897.66;;;5.03;71.04
18201;BME280;9226;47.858;9.594;2024-02-21T05:41:06;95896.00;;;5.00;71.25
18201;BME280;9226;47.858;9.594;2024-02-21T05:43:32;95897.81;;;5.00;71.33
18201;BME280;9226;47.858;9.594;2024-02-21T05:45:57;95890.16;;;4.95;71.67
18201;BME280;9226;47.858;9.594;2024-02-21T05:48:23;95895.47;;;4.94;71.90
18201;BME280;9226;47.858;9.594;2024-02-21T05:50:48;95879.88;;;4.91;72.04
18201;BME280;9226;47.858;9.594;2024-02-21T05:53:14;95877.09;;;4.94;71.58
18201;BME280;9226;47.858;9.594;2024-02-21T05:55:40;95871.19;;;4.88;72.00
18201;BME280;9226;47.858;9.594;2024-02-21T05:58:06;95867.63;;;4.89;71.60
18201;BME280;9226;47.858;9.594;2024-02-21T06:00:32;95857.59;;;4.80;71.38
18201;BME280;9226;47.858;9.594;2024-02-21T06:02:57;95844.16;;;4.69;71.70
18201;BME280;9226;47.858;9.594;2024-02-21T06:05:23;95840.94;;;4.64;71.65
18201;BME280;9226;47.858;9.594;2024-02-21T06:07:48;95844.41;;;4.64;71.42
18201;BME280;9226;47.858;9.594;2024-02-21T06:10:13;95846.88;;;4.67;71.45
18201;BME280;9226;47.858;9.594;2024-02-21T06:12:39;95846.03;;;4.67;71.50
18201;BME280;9226;47.858;9.594;2024-02-21T06:15:05;95852.56;;;4.76;71.49
18201;BME280;9226;47.858;9.594;2024-02-21T06:17:30;95851.72;;;4.75;71.43
18201;BME280;9226;47.858;9.594;2024-02-21T06:19:55;95857.19;;;4.88;70.73
18201;BME280;9226;47.858;9.594;2024-02-21T06:22:21;95853.41;;;4.94;70.81
18201;BME280;9226;47.858;9.594;2024-02-21T06:24:46;95843.56;;;4.97;70.88
18201;BME280;9226;47.858;9.594;2024-02-21T06:27:11;95843.56;;;4.97;70.67
18201;BME280;9226;47.858;9.594;2024-02-21T06:29:37;95836.81;;;5.09;70.23
18201;BME280;9226;47.858;9.594;2024-02-21T06:32:03;95832.50;;;5.08;70.10
18201;BME280;9226;47.858;9.594;2024-02-21T06:34:28;95827.06;;;5.11;69.77
18201;BME280;9226;47.858;9.594;2024-02-21T06:36:54;95827.50;;;5.19;69.58
18201;BME280;9226;47.858;9.594;2024-02-21T06:39:19;95825.56;;;5.23;69.71
18201;BME280;9226;47.858;9.594;2024-02-21T06:41:44;95827.28;;;5.40;70.04
18201;BME280;9226;47.858;9.594;2024-02-21T06:44:10;95826.34;;;5.73;69.94
18201;BME280;9226;47.858;9.594;2024-02-21T06:46:35;95824.38;;;6.08;69.28
18201;BME280;9226;47.858;9.594;2024-02-21T06:49:01;95824.47;;;6.37;67.95
18201;BME280;9226;47.858;9.594;2024-02-21T06:51:30;95812.75;;;6.57;66.64
18201;BME280;9226;47.858;9.594;2024-02-21T06:53:55;95818.22;;;6.68;65.30
18201;BME280;9226;47.858;9.594;2024-02-21T06:56:23;95823.22;;;6.73;64.20
18201;BME280;9226;47.858;9.594;2024-02-21T06:58:52;95827.13;;;6.82;64.53
18201;BME280;9226;47.858;9.594;2024-02-21T07:01:17;95834.66;;;6.88;64.55
18201;BME280;9226;47.858;9.594;2024-02-21T07:03:42;95835.22;;;6.93;64.60
18201;BME280;9226;47.858;9.594;2024-02-21T07:06:08;95823.47;;;7.13;65.43
18201;BME280;9226;47.858;9.594;2024-02-21T07:08:33;95825.41;;;7.67;65.82
18201;BME280;9226;47.858;9.594;2024-02-21T07:10:58;95818.16;;;8.38;65.37
18201;BME280;9226;47.858;9.594;2024-02-21T07:13:24;95814.34;;;9.08;62.91
18201;BME280;9226;47.858;9.594;2024-02-21T07:15:49;95819.41;;;9.37;58.66
18201;BME280;9226;47.858;9.594;2024-02-21T07:18:14;95820.75;;;9.55;56.28
18201;BME280;9226;47.858;9.594;2024-02-21T07:20:40;95818.41;;;9.64;55.54
18201;BME280;9226;47.858;9.594;2024-02-21T07:23:07;95812.50;;;9.84;56.07
18201;BME280;9226;47.858;9.594;2024-02-21T07:25:32;95804.72;;;9.94;55.65
18201;BME280;9226;47.858;9.594;2024-02-21T07:27:57;95809.47;;;10.02;54.81
18201;BME280;9226;47.858;9.594;2024-02-21T07:30:23;95813.25;;;9.86;51.94
18201;BME280;9226;47.858;9.594;2024-02-21T07:32:51;95822.78;;;10.13;54.06
18201;BME280;9226;47.858;9.594;2024-02-21T07:35:18;95818.03;;;10.05;52.53
18201;BME280;9226;47.858;9.594;2024-02-21T07:37:43;95816.63;;;10.61;54.28
18201;BME280;9226;47.858;9.594;2024-02-21T07:40:13;95818.09;;;11.23;53.64
18201;BME280;9226;47.858;9.594;2024-02-21T07:42:39;95810.09;;;11.80;48.79
18201;BME280;9226;47.858;9.594;2024-02-21T07:45:05;95807.06;;;12.72;48.99
18201;BME280;9226;47.858;9.594;2024-02-21T07:47:31;95815.78;;;13.26;45.79
18201;BME280;9226;47.858;9.594;2024-02-21T07:49:56;95819.16;;;13.80;45.97
18201;BME280;9226;47.858;9.594;2024-02-21T07:52:21;95811.94;;;14.21;45.26
18201;BME280;9226;47.858;9.594;2024-02-21T07:54:47;95817.88;;;14.44;46.61
18201;BME280;9226;47.858;9.594;2024-02-21T07:57:12;95816.47;;;15.08;45.85
18201;BME280;9226;47.858;9.594;2024-02-21T07:59:37;95805.44;;;15.21;42.57
18201;BME280;9226;47.858;9.594;2024-02-21T08:02:03;95800.25;;;15.77;43.35
18201;BME280;9226;47.858;9.594;2024-02-21T08:04:31;95796.47;;;16.61;43.66
18201;BME280;9226;47.858;9.594;2024-02-21T08:06:57;95800.66;;;16.99;42.19
18201;BME280;9226;47.858;9.594;2024-02-21T08:09:26;95795.03;;;17.98;40.24
18201;BME280;9226;47.858;9.594;2024-02-21T08:11:51;95793.41;;;18.80;38.89
18201;BME280;9226;47.858;9.594;2024-02-21T08:14:17;95787.94;;;19.63;38.29
18201;BME280;9226;47.858;9.594;2024-02-21T08:16:42;95795.63;;;19.91;35.36
18201;BME280;9226;47.858;9.594;2024-02-21T08:19:08;95776.63;;;19.84;33.07
18201;BME280;9226;47.858;9.594;2024-02-21T08:21:33;95783.34;;;20.51;33.40
18201;BME280;9226;47.858;9.594;2024-02-21T08:23:59;95781.00;;;20.48;31.46
18201;BME280;9226;47.858;9.594;2024-02-21T08:26:24;95773.84;;;20.63;32.84
18201;BME280;9226;47.858;9.594;2024-02-21T08:28:53;95761.03;;;20.42;32.65
18201;BME280;9226;47.858;9.594;2024-02-21T08:31:19;95765.91;;;20.70;32.06
18201;BME280;9226;47.858;9.594;2024-02-21T08:33:45;95765.19;;;20.76;30.94
18201;BME280;9226;47.858;9.594;2024-02-21T08:36:17;95769.25;;;20.17;30.56
18201;BME280;9226;47.858;9.594;2024-02-21T08:38:44;95765.41;;;19.56;31.10
18201;BME280;9226;47.858;9.594;2024-02-21T08:41:09;95767.97;;;19.49;33.15
18201;BME280;9226;47.858;9.594;2024-02-21T08:43:34;95764.28;;;18.43;32.88
18201;BME280;9226;47.858;9.594;2024-02-21T08:46:01;95765.66;;;17.88;34.36
18201;BME280;9226;47.858;9.594;2024-02-21T08:48:26;95766.97;;;18.35;34.32
18201;BME280;9226;47.858;9.594;2024-02-21T08:50:51;95756.78;;;17.96;34.15
18201;BME280;9226;47.858;9.594;2024-02-21T08:53:17;95755.97;;;17.61;36.10
18201;BME280;9226;47.858;9.594;2024-02-21T08:55:42;95750.91;;;17.58;36.28
18201;BME280;9226;47.858;9.594;2024-02-21T08:58:09;95757.34;;;17.73;36.07
18201;BME280;9226;47.858;9.594;2024-02-21T09:00:34;95757.97;;;16.62;36.36
18201;BME280;9226;47.858;9.594;2024-02-21T09:03:00;95752.69;;;17.14;36.66
18201;BME280;9226;47.858;9.594;2024-02-21T09:05:25;95754.19;;;17.17;37.68
18201;BME280;9226;47.858;9.594;2024-02-21T09:07:51;95751.72;;;16.97;37.74
18201;BME280;9226;47.858;9.594;2024-02-21T09:10:16;95750.78;;;17.33;37.99
18201;BME280;9226;47.858;9.594;2024-02-21T09:12:42;95745.34;;;17.85;37.86
18201;BME280;9226;47.858;9.594;2024-02-21T09:15:08;95748.97;;;17.68;37.36
18201;BME280;9226;47.858;9.594;2024-02-21T09:17:33;95740.91;;;17.68;37.50
18201;BME280;9226;47.858;9.594;2024-02-21T09:19:58;95740.81;;;17.51;37.60
18201;BME280;9226;47.858;9.594;2024-02-21T09:22:28;95736.72;;;17.73;37.22
18201;BME280;9226;47.858;9.594;2024-02-21T09:24:53;95735.97;;;17.98;36.75
18201;BME280;9226;47.858;9.594;2024-02-21T09:27:18;95736.22;;;17.35;37.65
18201;BME280;9226;47.858;9.594;2024-02-21T09:29:44;95736.28;;;17.17;37.78
18201;BME280;9226;47.858;9.594;2024-02-21T09:32:09;95734.72;;;17.07;37.94
18201;BME280;9226;47.858;9.594;2024-02-21T09:34:34;95723.56;;;17.20;37.84
18201;BME280;9226;47.858;9.594;2024-02-21T09:37:00;95726.41;;;16.74;38.25
18201;BME280;9226;47.858;9.594;2024-02-21T09:39:25;95719.75;;;16.78;38.55
18201;BME280;9226;47.858;9.594;2024-02-21T09:41:54;95720.09;;;16.03;39.03
18201;BME280;9226;47.858;9.594;2024-02-21T09:44:21;95718.94;;;16.23;39.33
18201;BME280;9226;47.858;9.594;2024-02-21T09:47:00;95725.94;;;15.61;40.24
18201;BME280;9226;47.858;9.594;2024-02-21T09:49:32;95710.81;;;15.14;41.02
18201;BME280;9226;47.858;9.594;2024-02-21T09:52:00;95716.28;;;15.22;41.26
18201;BME280;9226;47.858;9.594;2024-02-21T09:54:28;95715.78;;;15.09;41.51
18201;BME280;9226;47.858;9.594;2024-02-21T09:56:54;95714.00;;;14.80;42.18
18201;BME280;9226;47.858;9.594;2024-02-21T09:59:19;95720.88;;;14.92;42.28
18201;BME280;9226;47.858;9.594;2024-02-21T10:01:45;95718.13;;;14.06;43.85
18201;BME280;9226;47.858;9.594;2024-02-21T10:04:12;95714.75;;;14.43;42.93
18201;BME280;9226;47.858;9.594;2024-02-21T10:06:37;95706.00;;;14.80;42.62
18201;BME280;9226;47.858;9.594;2024-02-21T10:09:05;95708.97;;;14.57;43.03
18201;BME280;9226;47.858;9.594;2024-02-21T10:11:31;95706.28;;;14.77;43.39
18201;BME280;9226;47.858;9.594;2024-02-21T10:14:06;95707.69;;;14.81;42.29
18201;BME280;9226;47.858;9.594;2024-02-21T10:16:32;95704.88;;;15.48;42.14
18201;BME280;9226;47.858;9.594;2024-02-21T10:18:58;95692.31;;;15.30;41.91
18201;BME280;9226;47.858;9.594;2024-02-21T10:21:24;95692.63;;;15.55;41.26
18201;BME280;9226;47.858;9.594;2024-02-21T10:23:50;95698.41;;;15.23;41.91
18201;BME280;9226;47.858;9.594;2024-02-21T10:26:18;95696.47;;;15.70;41.51
18201;BME280;9226;47.858;9.594;2024-02-21T10:28:43;95700.09;;;15.51;41.17
18201;BME280;9226;47.858;9.594;2024-02-21T10:31:24;95689.81;;;15.74;41.02
18201;BME280;9226;47.858;9.594;2024-02-21T10:34:08;95690.56;;;15.77;41.25
18201;BME280;9226;47.858;9.594;2024-02-21T10:36:34;95682.69;;;15.65;41.32
18201;BME280;9226;47.858;9.594;2024-02-21T10:38:59;95680.84;;;15.20;41.90
18201;BME280;9226;47.858;9.594;2024-02-21T10:41:25;95674.75;;;15.28;42.41
18201;BME280;9226;47.858;9.594;2024-02-21T10:43:53;95666.66;;;15.65;42.07
18201;BME280;9226;47.858;9.594;2024-02-21T10:46:21;95664.28;;;15.62;42.01
18201;BME280;9226;47.858;9.594;2024-02-21T10:48:47;95660.69;;;14.98;42.60
18201;BME280;9226;47.858;9.594;2024-02-21T10:51:17;95665.16;;;15.07;42.63
18201;BME280;9226;47.858;9.594;2024-02-21T10:53:45;95658.41;;;15.03;42.95
18201;BME280;9226;47.858;9.594;2024-02-21T10:56:29;95659.91;;;15.15;42.48
18201;BME280;9226;47.858;9.594;2024-02-21T10:58:58;95657.56;;;15.02;42.80
18201;BME280;9226;47.858;9.594;2024-02-21T11:01:26;95639.25;;;15.08;43.35
18201;BME280;9226;47.858;9.594;2024-02-21T11:03:54;95641.00;;;14.89;43.72
18201;BME280;9226;47.858;9.594;2024-02-21T11:06:21;95639.34;;;15.16;43.27
18201;BME280;9226;47.858;9.594;2024-02-21T11:08:48;95628.25;;;15.38;42.78
18201;BME280;9226;47.858;9.594;2024-02-21T11:11:24;95620.16;;;15.02;42.50
18201;BME280;9226;47.858;9.594;2024-02-21T11:13:49;95616.66;;;14.64;42.98
18201;BME280;9226;47.858;9.594;2024-02-21T11:16:22;95614.59;;;14.86;43.44
18201;BME280;9226;47.858;9.594;2024-02-21T11:18:48;95607.28;;;14.88;42.79
18201;BME280;9226;47.858;9.594;2024-02-21T11:21:13;95604.56;;;14.51;43.47
18201;BME280;9226;47.858;9.594;2024-02-21T11:23:39;95597.69;;;14.95;43.30
18201;BME280;9226;47.858;9.594;2024-02-21T11:26:08;95595.59;;;14.89;42.91
18201;BME280;9226;47.858;9.594;2024-02-21T11:28:34;95593.97;;;14.31;43.78
18201;BME280;9226;47.858;9.594;2024-02-21T11:31:10;95591.03;;;14.72;43.58
18201;BME280;9226;47.858;9.594;2024-02-21T11:33:42;95584.38;;;14.38;43.66
18201;BME280;9226;47.858;9.594;2024-02-21T11:36:08;95572.34;;;14.15;44.01
18201;BME280;9226;47.858;9.594;2024-02-21T11:38:34;95566.66;;;14.47;44.11
18201;BME280;9226;47.858;9.594;2024-02-21T11:40:59;95559.13;;;14.23;44.12
18201;BME280;9226;47.858;9.594;2024-02-21T11:43:24;95562.13;;;14.00;44.31
18201;BME280;9226;47.858;9.594;2024-02-21T11:45:50;95555.13;;;13.80;44.97
18201;BME280;9226;47.858;9.594;2024-02-21T11:48:24;95551.03;;;14.05;44.46
18201;BME280;9226;47.858;9.594;2024-02-21T11:50:53;95549.88;;;14.17;44.10
18201;BME280;9226;47.858;9.594;2024-02-21T11:53:20;95548.72;;;14.20;43.99
18201;BME280;9226;47.858;9.594;2024-02-21T11:55:46;95543.44;;;14.10;43.74
18201;BME280;9226;47.858;9.594;2024-02-21T11:58:11;95542.84;;;14.16;44.03
18201;BME280;9226;47.858;9.594;2024-02-21T12:00:36;95531.53;;;14.42;43.52
18201;BME280;9226;47.858;9.594;2024-02-21T12:03:02;95524.59;;;14.59;43.43
18201;BME280;9226;47.858;9.594;2024-02-21T12:05:29;95510.69;;;14.55;42.69
18201;BME280;9226;47.858;9.594;2024-02-21T12:07:54;95510.13;;;14.61;42.75
18201;BME280;9226;47.858;9.594;2024-02-21T12:10:20;95507.47;;;14.14;43.19
18201;BME280;9226;47.858;9.594;2024-02-21T12:12:45;95500.06;;;14.45;42.58
18201;BME280;9226;47.858;9.594;2024-02-21T12:15:10;95495.91;;;14.71;42.59
18201;BME280;9226;47.858;9.594;2024-02-21T12:17:36;95487.63;;;15.10;42.67
18201;BME280;9226;47.858;9.594;2024-02-21T12:20:03;95481.97;;;14.95;41.90
18201;BME280;9226;47.858;9.594;2024-02-21T12:22:31;95479.91;;;14.89;41.94
18201;BME280;9226;47.858;9.594;2024-02-21T12:24:58;95466.97;;;14.56;41.63
18201;BME280;9226;47.858;9.594;2024-02-21T12:27:23;95464.78;;;14.79;41.73
18201;BME280;9226;47.858;9.594;2024-02-21T12:29:49;95455.59;;;14.54;42.41
18201;BME280;9226;47.858;9.594;2024-02-21T12:32:14;95454.78;;;14.54;42.44
18201;BME280;9226;47.858;9.594;2024-02-21T12:34:39;95448.28;;;14.56;42.10
18201;BME280;9226;47.858;9.594;2024-02-21T12:37:05;95450.97;;;14.28;42.43
18201;BME280;9226;47.858;9.594;2024-02-21T12:39:30;95443.50;;;14.32;41.70
18201;BME280;9226;47.858;9.594;2024-02-21T12:41:56;95431.78;;;14.43;41.29
18201;BME280;9226;47.858;9.594;2024-02-21T12:44:22;95427.72;;;14.39;42.37
18201;BME280;9226;47.858;9.594;2024-02-21T12:46:49;95430.09;;;14.42;42.81
18201;BME280;9226;47.858;9.594;2024-02-21T12:49:17;95423.94;;;14.41;41.75
18201;BME280;9226;47.858;9.594;2024-02-21T12:51:43;95427.72;;;14.11;40.67
18201;BME280;9226;47.858;9.594;2024-02-21T12:54:08;95420.63;;;14.29;40.23
18201;BME280;9226;47.858;9.594;2024-02-21T12:56:36;95414.88;;;14.24;40.46
18201;BME280;9226;47.858;9.594;2024-02-21T12:59:01;95412.06;;;14.26;39.84
18201;BME280;9226;47.858;9.594;2024-02-21T13:01:27;95407.66;;;14.07;40.23
18201;BME280;9226;47.858;9.594;2024-02-21T13:03:53;95402.44;;;14.43;40.51
18201;BME280;9226;47.858;9.594;2024-02-21T13:06:19;95390.81;;;14.34;40.27
18201;BME280;9226;47.858;9.594;2024-02-21T13:08:44;95384.75;;;14.14;40.43
18201;BME280;9226;47.858;9.594;2024-02-21T13:11:12;95380.47;;;14.21;40.85